Time;durP1;ratioP1;P1;durP2;ratioP2;P2;SDS_P1;SDS_P2;PMS_P1;PMS_P2;Temp;Humidity;BMP_temperature;BMP_pressure;BME280_temperature;BME280_humidity;BME280_pressure;Samples;Min_cycle;Max_cycle;Signal;HPM_P1;HPM_P2
2023/08/18 00:00:17;;;;;;;3.80;1.60;;;17.50;86.00;;;;;;5057174;28;20342;-51
2023/08/18 00:02:45;;;;;;;8.45;1.98;;;17.40;86.20;;;;;;5092582;28;20032;-53
2023/08/18 00:05:12;;;;;;;4.22;1.40;;;17.40;86.20;;;;;;5094978;28;20130;-51
2023/08/18 00:07:40;;;;;;;5.72;1.48;;;17.50;86.30;;;;;;5076996;28;20024;-50
2023/08/18 00:10:06;;;;;;;6.95;1.67;;;17.50;86.30;;;;;;5095312;28;20047;-49
2023/08/18 00:12:35;;;;;;;4.50;1.40;;;17.50;86.30;;;;;;5079346;28;20047;-53
2023/08/18 00:15:02;;;;;;;3.70;1.52;;;17.50;86.50;;;;;;5077545;28;20025;-51
2023/08/18 00:17:29;;;;;;;2.67;1.50;;;17.50;86.50;;;;;;5078315;28;20056;-50
2023/08/18 00:19:56;;;;;;;5.43;1.58;;;17.40;86.40;;;;;;5093150;28;20143;-52
2023/08/18 00:22:25;;;;;;;6.57;1.65;;;17.40;86.40;;;;;;5095755;28;20031;-51
2023/08/18 00:24:51;;;;;;;2.90;1.50;;;17.40;86.50;;;;;;5094962;28;20024;-53
2023/08/18 00:27:18;;;;;;;7.38;1.40;;;17.50;86.60;;;;;;5072179;28;20746;-53
2023/08/18 00:29:45;;;;;;;5.18;2.15;;;17.40;86.70;;;;;;5095580;28;20475;-51
2023/08/18 00:32:13;;;;;;;4.28;1.75;;;17.50;86.70;;;;;;5094859;28;20479;-55
2023/08/18 00:34:40;;;;;;;3.88;1.83;;;17.40;86.70;;;;;;5095172;28;20028;-52
2023/08/18 00:37:07;;;;;;;5.65;1.50;;;17.50;86.70;;;;;;5092319;28;20141;-51
2023/08/18 00:39:34;;;;;;;4.13;1.33;;;17.50;86.40;;;;;;5094892;28;20051;-54
2023/08/18 00:42:00;;;;;;;3.53;1.30;;;17.50;86.50;;;;;;5088824;28;20020;-52
2023/08/18 00:44:29;;;;;;;4.35;1.40;;;17.40;86.50;;;;;;5091515;28;20036;-51
2023/08/18 00:46:56;;;;;;;6.68;2.22;;;17.40;86.50;;;;;;5092345;28;20115;-50
2023/08/18 00:49:23;;;;;;;8.18;1.60;;;17.40;86.50;;;;;;5095123;28;20024;-49
2023/08/18 00:51:53;;;;;;;5.75;1.77;;;17.40;86.60;;;;;;5094514;28;20055;-52
2023/08/18 00:54:20;;;;;;;;;;;17.50;86.60;;;;;;5095693;28;20110;-49
2023/08/18 00:56:47;;;;;;;5.40;2.03;;;17.40;86.70;;;;;;5094095;28;19912;-51
2023/08/18 00:59:15;;;;;;;4.63;1.50;;;17.40;86.80;;;;;;5085189;28;20337;-51
2023/08/18 01:01:42;;;;;;;3.78;1.90;;;17.40;86.90;;;;;;5065949;28;20373;-53
2023/08/18 01:04:12;;;;;;;3.17;1.55;;;17.40;87.00;;;;;;5078371;28;20028;-49
2023/08/18 01:06:38;;;;;;;4.47;1.88;;;17.50;87.10;;;;;;5089514;28;20040;-54
2023/08/18 01:09:06;;;;;;;5.30;2.17;;;17.40;87.30;;;;;;5093492;28;20028;-51
2023/08/18 01:12:12;;;;;;;5.00;1.98;;;17.40;87.30;;;;;;5093391;28;20032;-52
2023/08/18 01:14:50;;;;;;;5.18;1.80;;;17.40;87.50;;;;;;5078316;28;20091;-50
2023/08/18 01:17:31;;;;;;;4.88;1.85;;;17.40;87.50;;;;;;5092434;28;20066;-51
2023/08/18 01:20:02;;;;;;;4.00;1.80;;;17.40;87.70;;;;;;5060215;28;20036;-52
2023/08/18 01:22:28;;;;;;;7.53;2.83;;;17.40;87.90;;;;;;5075017;28;20032;-50
2023/08/18 01:25:01;;;;;;;7.30;2.63;;;17.40;87.90;;;;;;5093667;28;20050;-51
2023/08/18 01:27:31;;;;;;;6.45;2.60;;;17.40;88.00;;;;;;5090514;28;20033;-50
2023/08/18 01:29:58;;;;;;;;;;;17.40;88.00;;;;;;5094572;28;20036;-50
2023/08/18 01:32:29;;;;;;;6.63;2.30;;;17.40;88.10;;;;;;5075100;28;19915;-49
2023/08/18 01:34:58;;;;;;;8.30;3.33;;;17.40;88.10;;;;;;5092260;28;20051;-51
2023/08/18 01:37:27;;;;;;;7.07;2.88;;;17.40;88.20;;;;;;5093977;28;20019;-50
2023/08/18 01:39:54;;;;;;;5.63;2.60;;;17.40;88.20;;;;;;5093996;28;20048;-51
2023/08/18 01:42:22;;;;;;;7.60;3.47;;;17.40;88.30;;;;;;5091665;28;20024;-50
2023/08/18 01:44:47;;;;;;;6.68;2.97;;;17.40;88.40;;;;;;5057995;28;20124;-51
2023/08/18 01:47:17;;;;;;;5.80;3.25;;;17.40;88.50;;;;;;5091126;28;20128;-50
2023/08/18 01:49:44;;;;;;;6.32;3.05;;;17.40;88.60;;;;;;5087403;28;20353;-51
2023/08/18 01:52:13;;;;;;;4.25;2.78;;;17.40;88.70;;;;;;5055967;28;20090;-53
2023/08/18 01:54:40;;;;;;;6.88;3.58;;;17.40;88.70;;;;;;5073928;28;20032;-50
2023/08/18 01:57:08;;;;;;;8.57;3.42;;;17.40;88.80;;;;;;5092630;28;20028;-50
2023/08/18 01:59:35;;;;;;;8.23;3.65;;;17.40;89.00;;;;;;5072374;28;20384;-50
2023/08/18 02:02:02;;;;;;;6.05;3.15;;;17.40;88.90;;;;;;5073955;28;20028;-49
2023/08/18 02:04:28;;;;;;;4.43;2.65;;;17.40;89.00;;;;;;5093807;28;20717;-52
2023/08/18 02:06:54;;;;;;;8.57;4.32;;;17.40;89.00;;;;;;5093654;28;20028;-53
2023/08/18 02:09:22;;;;;;;7.82;3.63;;;17.40;89.10;;;;;;5091919;28;20040;-49
2023/08/18 02:11:49;;;;;;;7.25;4.65;;;17.40;89.10;;;;;;5092514;28;20070;-50
2023/08/18 02:14:16;;;;;;;6.80;4.13;;;17.40;89.10;;;;;;5086427;28;20032;-51
2023/08/18 02:16:42;;;;;;;7.63;3.47;;;17.40;89.10;;;;;;5092681;28;20063;-51
2023/08/18 02:19:09;;;;;;;7.65;3.75;;;17.40;89.20;;;;;;5074998;28;20036;-50
2023/08/18 02:21:37;;;;;;;5.53;3.58;;;17.40;89.20;;;;;;5085346;28;20036;-50
2023/08/18 02:24:04;;;;;;;6.82;3.97;;;17.40;89.20;;;;;;5066037;28;20427;-51
2023/08/18 02:26:33;;;;;;;5.32;3.67;;;17.40;89.20;;;;;;5078084;28;20081;-54
2023/08/18 02:29:00;;;;;;;5.97;3.38;;;17.40;89.20;;;;;;5084718;28;20033;-52
2023/08/18 02:31:29;;;;;;;5.65;4.13;;;17.40;89.30;;;;;;5080612;28;20028;-52
2023/08/18 02:34:01;;;;;;;8.03;4.00;;;17.40;89.20;;;;;;5075082;28;20173;-50
2023/08/18 02:36:29;;;;;;;4.60;3.67;;;17.40;89.20;;;;;;5090136;28;20124;-53
2023/08/18 02:38:55;;;;;;;10.50;4.13;;;17.40;89.30;;;;;;5092696;28;20088;-50
2023/08/18 02:41:23;;;;;;;7.13;4.75;;;17.40;89.40;;;;;;5090835;28;20035;-50
2023/08/18 02:43:51;;;;;;;8.07;4.60;;;17.40;89.40;;;;;;5090373;28;20437;-53
2023/08/18 02:46:18;;;;;;;8.80;4.47;;;17.40;89.50;;;;;;5090939;28;20047;-49
2023/08/18 02:48:45;;;;;;;6.80;4.20;;;17.40;89.70;;;;;;5093225;28;20027;-53
2023/08/18 02:51:14;;;;;;;6.82;4.82;;;17.40;89.70;;;;;;5090130;28;20120;-51
2023/08/18 02:53:44;;;;;;;7.53;4.03;;;17.30;89.80;;;;;;5092755;28;20020;-56
2023/08/18 02:56:14;;;;;;;4.90;3.47;;;17.30;89.80;;;;;;5089313;28;20437;-50
2023/08/18 02:58:41;;;;;;;9.52;4.50;;;17.30;90.00;;;;;;5082501;28;20099;-54
2023/08/18 03:01:08;;;;;;;9.10;4.25;;;17.40;89.90;;;;;;5055880;28;20028;-50
2023/08/18 03:03:34;;;;;;;7.07;4.35;;;17.30;90.00;;;;;;5074629;28;20078;-50
2023/08/18 03:06:02;;;;;;;7.80;4.50;;;17.30;90.00;;;;;;5092686;28;20104;-51
2023/08/18 03:08:29;;;;;;;7.38;3.55;;;17.30;90.10;;;;;;5078731;28;20037;-51
2023/08/18 03:11:01;;;;;;;7.82;3.88;;;17.30;90.10;;;;;;5063373;28;20032;-54
2023/08/18 03:13:31;;;;;;;13.70;5.63;;;17.30;90.20;;;;;;5084292;28;20035;-49
2023/08/18 03:15:58;;;;;;;9.85;4.72;;;17.30;90.10;;;;;;5090620;28;20044;-49
2023/08/18 03:18:24;;;;;;;7.18;3.45;;;17.30;90.20;;;;;;5053891;28;20024;-50
2023/08/18 03:20:59;;;;;;;9.20;5.22;;;17.30;90.10;;;;;;5089662;28;20031;-50
2023/08/18 03:23:27;;;;;;;5.35;3.88;;;17.40;90.10;;;;;;5092531;28;20399;-51
2023/08/18 03:26:05;;;;;;;5.93;3.60;;;17.30;90.10;;;;;;5089064;28;20032;-50
2023/08/18 03:28:38;;;;;;;8.57;4.35;;;17.30;90.20;;;;;;5089449;28;20040;-52
2023/08/18 03:31:06;;;;;;;6.95;3.47;;;17.40;90.20;;;;;;5071951;28;20033;-51
2023/08/18 03:33:34;;;;;;;5.55;3.65;;;17.30;90.30;;;;;;5079832;28;20024;-52
2023/08/18 03:36:01;;;;;;;6.07;3.60;;;17.30;90.20;;;;;;5074498;28;20039;-50
2023/08/18 03:38:31;;;;;;;6.55;3.22;;;17.30;90.20;;;;;;5069880;28;20495;-51
2023/08/18 03:41:04;;;;;;;9.70;3.70;;;17.30;90.20;;;;;;5070738;28;20052;-49
2023/08/18 03:43:32;;;;;;;8.77;3.47;;;17.30;90.10;;;;;;5058717;28;20507;-55
2023/08/18 03:46:01;;;;;;;7.40;3.58;;;17.30;90.20;;;;;;5058588;28;20039;-50
2023/08/18 03:48:28;;;;;;;4.67;2.57;;;17.40;90.00;;;;;;5070614;28;20425;-52
2023/08/18 03:50:55;;;;;;;7.03;3.50;;;17.30;90.10;;;;;;5071990;28;20028;-49
2023/08/18 03:53:23;;;;;;;8.55;4.63;;;17.40;90.10;;;;;;5071012;28;20041;-49
2023/08/18 03:55:52;;;;;;;5.93;3.40;;;17.40;90.10;;;;;;5070826;28;20086;-52
2023/08/18 03:58:19;;;;;;;8.23;2.88;;;17.30;90.00;;;;;;5070228;28;20024;-52
2023/08/18 04:00:46;;;;;;;5.55;3.08;;;17.30;90.10;;;;;;5068626;28;20043;-53
2023/08/18 04:03:14;;;;;;;5.35;3.10;;;17.30;90.10;;;;;;5070018;28;20366;-50
2023/08/18 04:05:46;;;;;;;6.13;2.95;;;17.30;90.10;;;;;;5071091;28;20098;-51
2023/08/18 04:08:15;;;;;;;6.03;2.45;;;17.30;90.20;;;;;;5069880;28;20082;-53
2023/08/18 04:10:44;;;;;;;7.00;3.37;;;17.30;90.20;;;;;;5071964;28;20106;-49
2023/08/18 04:13:14;;;;;;;4.65;3.42;;;17.30;90.30;;;;;;5067927;28;20294;-54
2023/08/18 04:15:41;;;;;;;4.05;2.60;;;17.30;90.20;;;;;;5057074;28;20029;-55
2023/08/18 04:18:12;;;;;;;4.50;3.15;;;17.30;90.20;;;;;;5067194;28;20056;-53
2023/08/18 04:20:40;;;;;;;10.10;3.63;;;17.30;90.20;;;;;;5071765;28;20338;-54
2023/08/18 04:23:11;;;;;;;11.88;4.65;;;17.30;90.20;;;;;;5065463;28;20170;-49
2023/08/18 04:25:40;;;;;;;5.80;3.78;;;17.30;90.20;;;;;;5066662;28;20453;-50
2023/08/18 04:28:07;;;;;;;10.43;3.22;;;17.30;90.20;;;;;;5061122;28;20033;-53
2023/08/18 04:30:35;;;;;;;7.28;3.38;;;17.30;90.20;;;;;;5054044;28;20033;-55
2023/08/18 04:33:04;;;;;;;10.07;4.40;;;17.20;90.20;;;;;;5062245;28;20140;-50
2023/08/18 04:35:31;;;;;;;6.43;3.90;;;17.30;90.40;;;;;;5064959;28;20072;-52
2023/08/18 04:37:56;;;;;;;12.77;3.97;;;17.30;90.30;;;;;;5071448;28;20183;-51
2023/08/18 04:40:23;;;;;;;8.82;3.85;;;17.30;90.30;;;;;;5091856;28;20055;-49
2023/08/18 04:42:50;;;;;;;6.65;3.40;;;17.30;90.30;;;;;;5085822;28;20182;-51
2023/08/18 04:45:18;;;;;;;5.25;2.70;;;17.30;90.30;;;;;;5090466;28;20452;-52
2023/08/18 04:47:45;;;;;;;5.38;3.30;;;17.30;90.40;;;;;;5092145;28;20039;-54
2023/08/18 04:50:14;;;;;;;7.03;4.18;;;17.30;90.50;;;;;;5095006;28;20020;-52
2023/08/18 04:52:41;;;;;;;7.15;3.88;;;17.30;90.50;;;;;;5095020;28;20039;-54
2023/08/18 04:55:08;;;;;;;10.32;3.78;;;17.40;90.60;;;;;;5094766;28;20060;-51
2023/08/18 04:57:35;;;;;;;5.07;3.15;;;17.40;90.60;;;;;;5088058;28;20024;-51
2023/08/18 05:00:02;;;;;;;6.65;3.03;;;17.40;90.70;;;;;;5093495;28;20112;-51
2023/08/18 05:02:29;;;;;;;7.35;3.60;;;17.40;90.80;;;;;;5094518;28;20043;-55
2023/08/18 05:04:56;;;;;;;9.50;3.58;;;17.40;90.60;;;;;;5093559;28;20356;-53
2023/08/18 05:07:23;;;;;;;6.68;3.40;;;17.40;90.70;;;;;;5079023;28;20412;-55
2023/08/18 05:09:49;;;;;;;6.45;3.15;;;17.40;90.60;;;;;;5089736;28;20318;-51
2023/08/18 05:12:15;;;;;;;6.72;3.30;;;17.50;90.60;;;;;;5078064;28;20031;-49
2023/08/18 05:14:42;;;;;;;7.93;3.38;;;17.40;90.50;;;;;;5085420;28;20024;-51
2023/08/18 05:17:11;;;;;;;7.95;3.45;;;17.50;90.50;;;;;;5092739;28;20034;-50
2023/08/18 05:19:37;;;;;;;6.38;2.95;;;17.50;90.40;;;;;;5094496;28;20036;-53
2023/08/18 05:22:03;;;;;;;6.00;3.80;;;17.50;90.30;;;;;;5092234;28;20024;-51
2023/08/18 05:24:30;;;;;;;5.95;3.15;;;17.60;90.20;;;;;;5075625;28;20115;-49
2023/08/18 05:26:56;;;;;;;7.07;3.20;;;17.50;90.20;;;;;;5093740;28;20115;-50
2023/08/18 05:29:24;;;;;;;5.10;3.35;;;17.60;90.20;;;;;;5087250;28;20093;-51
2023/08/18 05:31:50;;;;;;;5.55;3.42;;;17.50;90.10;;;;;;5093353;28;20042;-50
2023/08/18 05:34:17;;;;;;;8.90;3.40;;;17.70;90.10;;;;;;5094157;28;20419;-52
2023/08/18 05:36:44;;;;;;;6.97;3.03;;;17.60;90.00;;;;;;5079379;28;20028;-50
2023/08/18 05:39:14;;;;;;;4.25;2.53;;;17.70;90.10;;;;;;5063161;28;20378;-54
2023/08/18 05:41:39;;;;;;;6.75;3.30;;;17.70;90.10;;;;;;5069048;28;20032;-50
2023/08/18 05:44:07;;;;;;;5.70;2.72;;;17.80;89.80;;;;;;5081357;28;20089;-50
2023/08/18 05:46:34;;;;;;;5.63;2.83;;;17.80;90.00;;;;;;5084994;28;20035;-52
2023/08/18 05:49:02;;;;;;;7.88;4.38;;;17.90;89.90;;;;;;5088383;28;20099;-53
2023/08/18 05:51:28;;;;;;;6.43;4.10;;;17.90;89.80;;;;;;5083158;28;20035;-50
2023/08/18 05:53:55;;;;;;;7.32;2.95;;;17.90;89.60;;;;;;5089722;28;20024;-51
2023/08/18 05:56:22;;;;;;;9.65;3.60;;;17.90;89.50;;;;;;5075078;28;20028;-53
2023/08/18 05:58:48;;;;;;;11.15;4.05;;;17.90;89.40;;;;;;5066689;28;20029;-50
2023/08/18 06:01:14;;;;;;;4.50;2.97;;;17.90;89.50;;;;;;5058311;28;20085;-51
2023/08/18 06:03:41;;;;;;;8.43;4.18;;;17.90;89.60;;;;;;5073425;28;20127;-50
2023/08/18 06:06:08;;;;;;;6.03;2.97;;;18.00;89.50;;;;;;5078404;28;20040;-51
2023/08/18 06:08:38;;;;;;;7.53;3.58;;;18.10;89.40;;;;;;5073463;28;20059;-51
2023/08/18 06:11:05;;;;;;;;;;;18.10;89.30;;;;;;5074545;28;20028;-50
2023/08/18 06:13:32;;;;;;;8.63;4.03;;;18.10;88.90;;;;;;5073692;28;19927;-52
2023/08/18 06:16:03;;;;;;;10.07;3.22;;;18.10;88.70;;;;;;5073654;28;20025;-49
2023/08/18 06:18:32;;;;;;;6.55;3.78;;;18.10;88.90;;;;;;5075247;28;20055;-49
2023/08/18 06:21:00;;;;;;;7.10;3.78;;;18.20;88.90;;;;;;5073263;28;20441;-51
2023/08/18 06:23:26;;;;;;;6.32;3.50;;;18.10;88.60;;;;;;5074821;28;20123;-50
2023/08/18 06:25:57;;;;;;;7.18;3.33;;;18.20;88.70;;;;;;5074683;28;20028;-51
2023/08/18 06:28:25;;;;;;;7.60;3.65;;;18.10;88.60;;;;;;5062610;28;20032;-53
2023/08/18 06:30:52;;;;;;;7.50;3.55;;;18.20;88.80;;;;;;5058692;28;20032;-51
2023/08/18 06:33:19;;;;;;;5.28;2.75;;;18.20;88.70;;;;;;5067788;28;20455;-51
2023/08/18 06:35:50;;;;;;;5.38;2.97;;;18.30;88.70;;;;;;5053747;28;20025;-52
2023/08/18 06:38:18;;;;;;;6.85;3.08;;;18.30;88.60;;;;;;5061542;28;20040;-52
2023/08/18 06:40:45;;;;;;;8.27;3.78;;;18.40;88.40;;;;;;5081708;28;20063;-52
2023/08/18 06:43:14;;;;;;;5.93;3.58;;;18.40;88.50;;;;;;5074572;28;20089;-50
2023/08/18 06:45:43;;;;;;;8.63;3.20;;;18.40;88.30;;;;;;5079279;28;20104;-55
2023/08/18 06:48:12;;;;;;;9.03;3.47;;;18.40;88.20;;;;;;5090995;28;20347;-52
2023/08/18 06:50:39;;;;;;;5.03;2.97;;;18.50;88.20;;;;;;5080631;28;20258;-49
2023/08/18 06:53:06;;;;;;;5.82;3.33;;;18.50;88.00;;;;;;5094515;28;20094;-50
2023/08/18 06:55:33;;;;;;;5.38;3.40;;;18.50;88.00;;;;;;5096587;28;20016;-53
2023/08/18 06:58:00;;;;;;;6.43;3.42;;;18.50;87.80;;;;;;5091080;28;20473;-51
2023/08/18 07:00:26;;;;;;;7.32;3.22;;;18.60;88.10;;;;;;5083223;28;21779;-54
2023/08/18 07:02:54;;;;;;;6.05;2.95;;;18.60;88.20;;;;;;5069392;28;20020;-53
2023/08/18 07:05:22;;;;;;;10.20;4.45;;;18.70;88.30;;;;;;5059471;28;20024;-54
2023/08/18 07:07:50;;;;;;;8.23;4.03;;;18.70;88.00;;;;;;5057759;28;20040;-54
2023/08/18 07:10:17;;;;;;;20.40;4.30;;;18.80;87.90;;;;;;5060078;28;20024;-54
2023/08/18 07:12:44;;;;;;;4.53;3.33;;;18.90;87.80;;;;;;5060149;28;20334;-50
2023/08/18 07:15:10;;;;;;;7.40;3.92;;;18.90;87.90;;;;;;5058011;28;20083;-53
2023/08/18 07:17:37;;;;;;;7.10;4.10;;;19.00;87.60;;;;;;5063642;28;20625;-55
2023/08/18 07:20:05;;;;;;;7.07;3.00;;;19.00;87.20;;;;;;5066625;28;20086;-51
2023/08/18 07:22:33;;;;;;;5.72;3.65;;;19.00;87.30;;;;;;5067766;28;20032;-53
2023/08/18 07:25:04;;;;;;;9.02;4.63;;;19.10;87.10;;;;;;5062652;28;20465;-53
2023/08/18 07:27:31;;;;;;;9.25;4.00;;;19.10;86.80;;;;;;5066464;28;20060;-54
2023/08/18 07:29:58;;;;;;;5.55;3.45;;;19.10;87.10;;;;;;5062926;28;20029;-51
2023/08/18 07:32:27;;;;;;;8.52;4.18;;;19.20;87.20;;;;;;5071459;28;20020;-54
2023/08/18 07:34:53;;;;;;;6.43;3.83;;;19.40;87.00;;;;;;5070953;28;20430;-52
2023/08/18 07:37:20;;;;;;;11.45;5.53;;;19.40;86.40;;;;;;5068104;28;20080;-57
2023/08/18 07:39:47;;;;;;;8.00;4.10;;;19.40;86.00;;;;;;5051111;28;20489;-50
2023/08/18 07:42:15;;;;;;;7.07;2.97;;;19.40;86.40;;;;;;5046095;28;20024;-53
2023/08/18 07:44:44;;;;;;;7.20;4.10;;;19.50;86.60;;;;;;5060797;28;20346;-53
2023/08/18 07:47:11;;;;;;;6.50;3.90;;;19.60;86.60;;;;;;5069492;28;20028;-53
2023/08/18 07:49:40;;;;;;;9.60;3.55;;;19.70;86.30;;;;;;5045931;28;20044;-56
2023/08/18 07:52:07;;;;;;;8.23;4.18;;;19.80;86.00;;;;;;5067347;28;20154;-50
2023/08/18 07:54:39;;;;;;;8.57;4.88;;;19.90;85.40;;;;;;5071236;28;20048;-54
2023/08/18 07:57:06;;;;;;;6.93;3.80;;;20.00;84.90;;;;;;5065892;28;20068;-52
2023/08/18 07:59:32;;;;;;;8.52;4.10;;;20.10;84.30;;;;;;5065019;28;20028;-52
2023/08/18 08:01:59;;;;;;;6.45;3.05;;;20.30;84.40;;;;;;5069996;28;20085;-56
2023/08/18 08:04:26;;;;;;;7.25;4.30;;;20.40;84.50;;;;;;5065209;28;20021;-54
2023/08/18 08:06:56;;;;;;;6.40;4.05;;;20.50;83.90;;;;;;5063536;28;20056;-57
2023/08/18 08:09:26;;;;;;;11.63;4.60;;;20.50;83.30;;;;;;5069455;28;20374;-51
2023/08/18 08:11:53;;;;;;;11.57;4.63;;;20.50;83.20;;;;;;5064915;28;20037;-56
2023/08/18 08:14:21;;;;;;;6.35;3.95;;;20.60;82.30;;;;;;5068720;28;20024;-54
2023/08/18 08:16:48;;;;;;;8.50;4.20;;;20.80;83.70;;;;;;5059268;28;20057;-53
2023/08/18 08:19:15;;;;;;;7.88;4.25;;;21.00;82.90;;;;;;5065875;28;20020;-54
2023/08/18 08:21:41;;;;;;;8.30;4.43;;;21.10;81.20;;;;;;5063997;28;20027;-54
2023/08/18 08:24:08;;;;;;;4.75;2.67;;;20.90;81.90;;;;;;5063017;28;20478;-54
2023/08/18 08:26:39;;;;;;;5.90;3.15;;;21.00;82.20;;;;;;5067519;28;20032;-53
2023/08/18 08:29:06;;;;;;;5.68;3.95;;;21.20;82.10;;;;;;5066592;28;20028;-54
2023/08/18 08:31:33;;;;;;;6.50;3.80;;;21.20;81.50;;;;;;5053228;28;20024;-54
2023/08/18 08:34:00;;;;;;;6.57;3.05;;;21.30;81.00;;;;;;5048775;28;20028;-54
2023/08/18 08:36:32;;;;;;;6.70;4.05;;;21.40;81.20;;;;;;5066742;28;20021;-57
2023/08/18 08:39:00;;;;;;;9.75;3.25;;;21.40;80.90;;;;;;5058568;28;20498;-55
2023/08/18 08:41:30;;;;;;;7.88;4.50;;;21.50;81.80;;;;;;5082226;28;20028;-56
2023/08/18 08:43:57;;;;;;;;;;;21.70;81.80;;;;;;5080408;28;20434;-52
2023/08/18 08:46:26;;;;;;;9.20;4.20;;;21.90;81.00;;;;;;5091696;28;19919;-55
2023/08/18 08:48:57;;;;;;;5.85;3.95;;;22.30;79.70;;;;;;5077370;28;20033;-52
2023/08/18 08:51:27;;;;;;;6.32;4.07;;;22.60;79.10;;;;;;5065183;28;20028;-55
2023/08/18 08:54:00;;;;;;;8.02;4.30;;;22.90;78.10;;;;;;5075510;28;20035;-53
2023/08/18 08:56:34;;;;;;;6.57;2.95;;;22.90;77.60;;;;;;5088531;28;20138;-50
2023/08/18 08:59:02;;;;;;;7.82;3.50;;;22.90;76.90;;;;;;5079871;28;20039;-55
2023/08/18 09:01:28;;;;;;;8.23;3.72;;;23.00;77.40;;;;;;5087742;28;20089;-56
2023/08/18 09:03:56;;;;;;;6.40;3.80;;;23.10;77.20;;;;;;5081334;28;20070;-55
2023/08/18 09:06:23;;;;;;;6.20;3.50;;;23.30;76.50;;;;;;5068560;28;20032;-55
2023/08/18 09:08:49;;;;;;;9.65;4.47;;;23.10;75.90;;;;;;5080508;28;20025;-52
2023/08/18 09:11:16;;;;;;;5.53;3.58;;;22.80;76.20;;;;;;5079240;28;20040;-56
2023/08/18 09:13:45;;;;;;;5.68;3.88;;;22.60;77.50;;;;;;5087295;28;20074;-55
2023/08/18 09:16:15;;;;;;;6.32;3.75;;;22.50;77.70;;;;;;5088169;28;20444;-51
2023/08/18 09:18:44;;;;;;;;;;;22.40;78.90;;;;;;5094720;28;20037;-54
2023/08/18 09:21:13;;;;;;;5.90;3.78;;;22.50;79.10;;;;;;5070123;28;19923;-54
2023/08/18 09:23:39;;;;;;;7.10;3.87;;;22.50;78.70;;;;;;5057930;28;20044;-57
2023/08/18 09:26:07;;;;;;;7.32;3.85;;;22.60;78.60;;;;;;5080934;28;20127;-56
2023/08/18 09:28:36;;;;;;;6.18;3.75;;;22.80;78.30;;;;;;5088734;28;20024;-55
2023/08/18 09:31:04;;;;;;;7.97;4.65;;;22.70;77.50;;;;;;5087448;28;20060;-54
2023/08/18 09:33:32;;;;;;;6.82;4.78;;;22.70;77.60;;;;;;5079898;28;20039;-53
2023/08/18 09:35:59;;;;;;;5.95;4.03;;;22.50;77.40;;;;;;5074635;28;20027;-54
2023/08/18 09:38:27;;;;;;;6.82;5.22;;;22.60;78.50;;;;;;5083017;28;20047;-55
2023/08/18 09:40:56;;;;;;;5.70;3.72;;;22.60;78.60;;;;;;5085383;28;20233;-56
2023/08/18 09:43:24;;;;;;;6.20;3.90;;;22.70;78.10;;;;;;5078501;28;20025;-55
2023/08/18 09:45:53;;;;;;;8.20;4.10;;;22.90;79.20;;;;;;5078342;28;20036;-57
2023/08/18 09:48:24;;;;;;;8.05;4.95;;;23.10;78.50;;;;;;5086017;28;20063;-57
2023/08/18 09:50:57;;;;;;;11.00;5.07;;;23.40;78.40;;;;;;5074243;28;20036;-56
2023/08/18 09:53:31;;;;;;;5.78;4.10;;;23.60;77.70;;;;;;5091924;28;20345;-53
2023/08/18 09:56:13;;;;;;;10.18;4.68;;;24.10;76.50;;;;;;5061289;28;20214;-57
2023/08/18 09:59:09;;;;;;;7.13;3.90;;;24.40;75.50;;;;;;5067087;28;20123;-55
2023/08/18 10:01:38;;;;;;;8.68;4.68;;;24.60;74.20;;;;;;5080747;28;20028;-58
2023/08/18 10:04:06;;;;;;;7.13;3.92;;;24.60;74.60;;;;;;5075377;28;20020;-54
2023/08/18 10:06:39;;;;;;;6.70;4.10;;;24.50;73.90;;;;;;5086254;28;20050;-52
2023/08/18 10:09:08;;;;;;;7.35;3.83;;;24.20;73.40;;;;;;5089384;28;20527;-56
2023/08/18 10:11:35;;;;;;;6.90;4.28;;;24.10;74.30;;;;;;5088311;28;20032;-53
2023/08/18 10:14:03;;;;;;;5.60;3.50;;;24.20;75.50;;;;;;5090220;28;20061;-58
2023/08/18 10:16:31;;;;;;;7.93;4.57;;;24.40;76.00;;;;;;5081347;28;20033;-57
2023/08/18 10:18:58;;;;;;;7.80;4.78;;;24.30;74.30;;;;;;5084637;28;20024;-58
2023/08/18 10:21:28;;;;;;;7.15;4.03;;;24.30;74.20;;;;;;5089027;28;20039;-52
2023/08/18 10:23:55;;;;;;;6.60;4.60;;;24.40;75.20;;;;;;5090996;28;20031;-57
2023/08/18 10:26:29;;;;;;;8.90;7.20;;;24.40;75.00;;;;;;5087571;28;20031;-56
2023/08/18 10:29:14;;;;;;;7.45;6.30;;;24.10;73.80;;;;;;5081035;28;21640;-56
2023/08/18 10:31:46;;;;;;;8.38;6.15;;;23.90;75.60;;;;;;5069062;28;20036;-54
2023/08/18 10:34:25;;;;;;;9.77;6.90;;;23.80;74.90;;;;;;5088404;28;20141;-54
2023/08/18 10:37:03;;;;;;;10.05;6.97;;;23.60;75.10;;;;;;5084840;28;20111;-54
2023/08/18 10:39:40;;;;;;;8.85;6.18;;;23.40;75.30;;;;;;5077738;28;20059;-56
2023/08/18 10:42:13;;;;;;;10.07;5.80;;;23.40;76.80;;;;;;5089622;28;20035;-57
2023/08/18 10:45:03;;;;;;;8.52;6.93;;;23.40;77.50;;;;;;5053640;28;20032;-57
2023/08/18 10:47:35;;;;;;;8.07;6.82;;;23.50;75.60;;;;;;5080127;28;20153;-54
2023/08/18 10:50:10;;;;;;;9.98;7.43;;;23.80;78.60;;;;;;5083728;28;20032;-57
2023/08/18 10:52:37;;;;;;;7.95;5.97;;;24.00;76.00;;;;;;5087571;28;20035;-54
2023/08/18 10:55:05;;;;;;;8.88;6.50;;;24.10;75.80;;;;;;5081245;28;20033;-57
2023/08/18 10:57:33;;;;;;;10.27;7.28;;;24.30;76.00;;;;;;5084857;28;20415;-58
2023/08/18 11:00:00;;;;;;;12.70;8.73;;;24.30;75.90;;;;;;5084275;28;20020;-54
2023/08/18 11:02:28;;;;;;;11.40;8.13;;;24.50;75.70;;;;;;5087035;28;20013;-57
2023/08/18 11:04:59;;;;;;;11.55;7.47;;;24.60;76.10;;;;;;5065601;28;20340;-56
2023/08/18 11:07:27;;;;;;;13.20;7.07;;;24.60;74.40;;;;;;5081722;28;20039;-59
2023/08/18 11:09:54;;;;;;;12.20;7.53;;;24.80;76.20;;;;;;5064713;28;20036;-57
2023/08/18 11:12:23;;;;;;;10.05;8.27;;;24.50;73.60;;;;;;5072976;28;20097;-55
2023/08/18 11:14:49;;;;;;;10.63;8.55;;;24.80;74.20;;;;;;5084406;28;20042;-58
2023/08/18 11:17:16;;;;;;;10.27;7.32;;;24.60;73.70;;;;;;5069979;28;20465;-56
2023/08/18 11:19:43;;;;;;;10.05;6.68;;;24.70;74.40;;;;;;5090478;28;20047;-51
2023/08/18 11:22:11;;;;;;;9.35;6.88;;;24.80;73.90;;;;;;5078686;28;20051;-55
2023/08/18 11:24:40;;;;;;;11.27;6.43;;;24.60;74.60;;;;;;5067316;28;20029;-54
2023/08/18 11:27:08;;;;;;;9.80;7.55;;;24.60;76.10;;;;;;5080651;28;20024;-56
2023/08/18 11:29:36;;;;;;;9.65;7.15;;;24.70;74.20;;;;;;5082872;28;20027;-57
2023/08/18 11:32:06;;;;;;;12.00;8.02;;;24.90;76.40;;;;;;5062672;28;20042;-55
2023/08/18 11:34:34;;;;;;;9.75;8.38;;;24.90;74.80;;;;;;5078521;28;20027;-58
2023/08/18 11:37:01;;;;;;;8.75;7.35;;;24.80;74.50;;;;;;5080093;28;20348;-54
2023/08/18 11:39:31;;;;;;;9.85;8.20;;;24.70;75.40;;;;;;5075976;28;20048;-56
2023/08/18 11:41:58;;;;;;;11.52;7.72;;;24.60;74.20;;;;;;5070446;28;20012;-58
2023/08/18 11:44:25;;;;;;;13.18;9.43;;;24.40;73.60;;;;;;5082020;28;20050;-54
2023/08/18 11:46:51;;;;;;;12.88;9.10;;;24.40;75.00;;;;;;5086706;28;20560;-57
2023/08/18 11:49:20;;;;;;;11.15;8.77;;;24.30;74.10;;;;;;5081484;28;20126;-57
2023/08/18 11:52:05;;;;;;;11.07;9.00;;;24.10;75.30;;;;;;5083167;28;20024;-58
2023/08/18 11:54:56;;;;;;;15.75;11.63;;;24.10;75.60;;;;;;5078743;28;20055;-53
2023/08/18 11:57:25;;;;;;;12.85;11.05;;;24.00;76.30;;;;;;5056398;28;20028;-54
2023/08/18 11:59:51;;;;;;;10.45;8.10;;;23.90;76.40;;;;;;5093082;28;20111;-56
2023/08/18 12:02:21;;;;;;;11.77;8.90;;;24.00;77.00;;;;;;5086123;28;20031;-54
2023/08/18 12:04:51;;;;;;;10.75;7.82;;;24.00;77.20;;;;;;5092179;28;20035;-53
2023/08/18 12:07:19;;;;;;;13.65;9.30;;;24.20;78.30;;;;;;5088155;28;20089;-53
2023/08/18 12:09:46;;;;;;;10.85;9.20;;;24.20;77.60;;;;;;5094072;28;20032;-55
2023/08/18 12:12:14;;;;;;;12.75;10.48;;;24.20;78.00;;;;;;5074014;28;20028;-57
2023/08/18 12:14:41;;;;;;;11.55;9.82;;;24.10;77.10;;;;;;5084719;28;20032;-56
2023/08/18 12:17:09;;;;;;;14.15;9.75;;;24.00;76.90;;;;;;5081381;28;20090;-56
2023/08/18 12:19:36;;;;;;;11.65;8.85;;;23.90;76.80;;;;;;5092165;28;20056;-58
2023/08/18 12:22:01;;;;;;;11.32;9.18;;;23.90;77.40;;;;;;5084372;28;20051;-56
2023/08/18 12:24:30;;;;;;;14.13;8.98;;;23.80;78.60;;;;;;5091050;28;20127;-57
2023/08/18 12:26:56;;;;;;;10.85;8.15;;;23.80;78.80;;;;;;5094120;28;20027;-56
2023/08/18 12:29:22;;;;;;;13.75;9.07;;;23.90;78.80;;;;;;5083210;28;20115;-57
2023/08/18 12:31:49;;;;;;;14.07;9.40;;;23.80;79.40;;;;;;5081872;28;20118;-55
2023/08/18 12:34:16;;;;;;;11.52;9.85;;;23.80;79.80;;;;;;5085183;28;20021;-53
2023/08/18 12:36:43;;;;;;;12.55;9.85;;;23.80;79.10;;;;;;5074396;28;20028;-58
2023/08/18 12:39:10;;;;;;;13.48;10.93;;;23.80;78.20;;;;;;5053415;28;20051;-57
2023/08/18 12:41:37;;;;;;;14.15;9.32;;;23.60;79.70;;;;;;5051756;28;20021;-58
2023/08/18 12:44:08;;;;;;;11.77;10.50;;;23.70;79.80;;;;;;5029678;28;20029;-58
2023/08/18 12:46:37;;;;;;;11.60;9.13;;;23.90;80.10;;;;;;5037376;28;20024;-56
2023/08/18 12:49:05;;;;;;;10.60;9.48;;;23.90;80.00;;;;;;5030023;28;20546;-57
2023/08/18 12:51:34;;;;;;;10.98;9.70;;;23.80;79.50;;;;;;5052147;28;20033;-56